sensor_id;sensor_type;location;lat;lon;timestamp;pressure;altitude;pressure_sealevel;temperature;humidity
61906;BME280;47863;55.766;37.672;2023-02-28T00:00:17;100319.88;;;-7.76;78.93
61906;BME280;47863;55.766;37.672;2023-02-28T00:02:44;100319.94;;;-7.78;79.23
61906;BME280;47863;55.766;37.672;2023-02-28T00:05:12;100362.59;;;-7.44;79.35
61906;BME280;47863;55.766;37.672;2023-02-28T00:07:38;100318.88;;;-7.69;79.62
61906;BME280;47863;55.766;37.672;2023-02-28T00:10:05;100344.63;;;-7.57;79.65
61906;BME280;47863;55.766;37.672;2023-02-28T00:12:33;100358.34;;;-7.48;79.55
61906;BME280;47863;55.766;37.672;2023-02-28T00:14:59;100305.97;;;-7.73;79.14
61906;BME280;47863;55.766;37.672;2023-02-28T00:17:24;100357.47;;;-7.49;79.44
61906;BME280;47863;55.766;37.672;2023-02-28T00:19:51;100349.69;;;-7.50;78.94
61906;BME280;47863;55.766;37.672;2023-02-28T00:22:18;100349.59;;;-7.44;80.02
61906;BME280;47863;55.766;37.672;2023-02-28T00:24:45;100328.03;;;-7.51;79.52
61906;BME280;47863;55.766;37.672;2023-02-28T00:27:11;100302.47;;;-7.72;79.64
61906;BME280;47863;55.766;37.672;2023-02-28T00:29:37;100308.56;;;-7.72;79.47
61906;BME280;47863;55.766;37.672;2023-02-28T00:32:03;100340.16;;;-7.50;80.38
61906;BME280;47863;55.766;37.672;2023-02-28T00:34:29;100329.09;;;-7.60;79.86
61906;BME280;47863;55.766;37.672;2023-02-28T00:36:54;100327.28;;;-7.56;79.96
61906;BME280;47863;55.766;37.672;2023-02-28T00:39:21;100335.03;;;-7.54;80.04
61906;BME280;47863;55.766;37.672;2023-02-28T00:41:46;100326.50;;;-7.60;79.82
61906;BME280;47863;55.766;37.672;2023-02-28T00:44:12;100330.06;;;-7.64;79.76
61906;BME280;47863;55.766;37.672;2023-02-28T00:46:38;100330.94;;;-7.66;80.25
61906;BME280;47863;55.766;37.672;2023-02-28T00:49:03;100330.13;;;-7.68;80.12
61906;BME280;47863;55.766;37.672;2023-02-28T00:51:29;100283.97;;;-7.98;79.74
61906;BME280;47863;55.766;37.672;2023-02-28T00:53:55;100309.63;;;-7.82;79.74
61906;BME280;47863;55.766;37.672;2023-02-28T00:56:20;100296.00;;;-7.93;80.02
61906;BME280;47863;55.766;37.672;2023-02-28T00:58:46;100321.75;;;-7.81;80.32
61906;BME280;47863;55.766;37.672;2023-02-28T01:01:11;100314.81;;;-7.82;79.88
61906;BME280;47863;55.766;37.672;2023-02-28T01:03:37;100296.84;;;-7.91;80.46
61906;BME280;47863;55.766;37.672;2023-02-28T01:06:04;100308.03;;;-7.88;79.91
61906;BME280;47863;55.766;37.672;2023-02-28T01:08:29;100275.50;;;-8.07;79.59
61906;BME280;47863;55.766;37.672;2023-02-28T01:10:55;100266.13;;;-8.16;80.43
61906;BME280;47863;55.766;37.672;2023-02-28T01:13:20;100255.84;;;-8.21;80.22
61906;BME280;47863;55.766;37.672;2023-02-28T01:15:54;100270.25;;;-8.06;80.32
61906;BME280;47863;55.766;37.672;2023-02-28T01:18:20;100226.56;;;-8.29;80.15
61906;BME280;47863;55.766;37.672;2023-02-28T01:20:47;100245.44;;;-8.21;79.96
61906;BME280;47863;55.766;37.672;2023-02-28T01:23:12;100262.56;;;-8.10;79.98
61906;BME280;47863;55.766;37.672;2023-02-28T01:25:38;100234.28;;;-8.26;80.29
61906;BME280;47863;55.766;37.672;2023-02-28T01:28:05;100221.25;;;-8.24;80.39
61906;BME280;47863;55.766;37.672;2023-02-28T01:30:31;100227.41;;;-8.28;80.77
61906;BME280;47863;55.766;37.672;2023-02-28T01:32:58;100242.66;;;-8.11;80.66
61906;BME280;47863;55.766;37.672;2023-02-28T01:35:23;100235.72;;;-8.12;80.90
61906;BME280;47863;55.766;37.672;2023-02-28T01:37:49;100193.81;;;-8.38;80.64
61906;BME280;47863;55.766;37.672;2023-02-28T01:40:15;100228.88;;;-8.15;80.47
61906;BME280;47863;55.766;37.672;2023-02-28T01:42:41;100205.72;;;-8.27;80.63
61906;BME280;47863;55.766;37.672;2023-02-28T01:45:30;100226.28;;;-8.15;80.18
61906;BME280;47863;55.766;37.672;2023-02-28T01:48:01;100221.09;;;-8.17;80.76
61906;BME280;47863;55.766;37.672;2023-02-28T01:50:30;100186.69;;;-8.28;80.84
61906;BME280;47863;55.766;37.672;2023-02-28T01:53:00;100196.03;;;-8.19;80.55
61906;BME280;47863;55.766;37.672;2023-02-28T01:55:28;100202.06;;;-8.17;80.50
61906;BME280;47863;55.766;37.672;2023-02-28T01:58:00;100202.84;;;-8.13;81.11
61906;BME280;47863;55.766;37.672;2023-02-28T02:00:28;100198.56;;;-8.16;80.99
61906;BME280;47863;55.766;37.672;2023-02-28T02:03:00;100142.97;;;-8.48;80.72
61906;BME280;47863;55.766;37.672;2023-02-28T02:05:30;100177.91;;;-8.22;80.94
61906;BME280;47863;55.766;37.672;2023-02-28T02:08:09;100174.50;;;-8.26;81.05
61906;BME280;47863;55.766;37.672;2023-02-28T02:10:40;100145.34;;;-8.39;80.81
61906;BME280;47863;55.766;37.672;2023-02-28T02:38:00;100068.25;;;-8.75;81.44
61906;BME280;47863;55.766;37.672;2023-02-28T02:46:14;100112.41;;;-8.38;81.75
61906;BME280;47863;55.766;37.672;2023-02-28T02:48:42;100106.28;;;-8.35;81.36
61906;BME280;47863;55.766;37.672;2023-02-28T02:51:19;100135.31;;;-8.17;81.68
61906;BME280;47863;55.766;37.672;2023-02-28T02:53:51;100130.09;;;-8.15;82.36
61906;BME280;47863;55.766;37.672;2023-02-28T02:56:20;100122.28;;;-8.13;81.97
61906;BME280;47863;55.766;37.672;2023-02-28T02:58:49;100100.78;;;-8.22;82.05
61906;BME280;47863;55.766;37.672;2023-02-28T03:01:20;100071.75;;;-8.39;82.93
61906;BME280;47863;55.766;37.672;2023-02-28T03:04:05;100124.00;;;-8.14;82.54
61906;BME280;47863;55.766;37.672;2023-02-28T03:06:33;100095.53;;;-8.19;82.30
61906;BME280;47863;55.766;37.672;2023-02-28T03:09:00;100100.56;;;-8.12;82.33
61906;BME280;47863;55.766;37.672;2023-02-28T03:11:25;100097.00;;;-8.08;82.91
61906;BME280;47863;55.766;37.672;2023-02-28T03:25:03;100072.75;;;-8.07;82.72
61906;BME280;47863;55.766;37.672;2023-02-28T03:27:39;100086.63;;;-8.10;82.46
61906;BME280;47863;55.766;37.672;2023-02-28T03:32:46;100065.78;;;-8.07;82.27
61906;BME280;47863;55.766;37.672;2023-02-28T03:35:32;100063.22;;;-8.08;82.66
61906;BME280;47863;55.766;37.672;2023-02-28T03:38:13;100044.06;;;-8.06;82.47
61906;BME280;47863;55.766;37.672;2023-02-28T03:40:43;100045.84;;;-8.06;82.04
61906;BME280;47863;55.766;37.672;2023-02-28T03:43:16;100060.63;;;-8.08;81.90
61906;BME280;47863;55.766;37.672;2023-02-28T03:45:43;100048.47;;;-8.08;82.06
61906;BME280;47863;55.766;37.672;2023-02-28T03:48:20;100031.16;;;-8.07;82.69
61906;BME280;47863;55.766;37.672;2023-02-28T03:50:49;100044.19;;;-8.10;81.74
61906;BME280;47863;55.766;37.672;2023-02-28T03:53:33;100028.47;;;-8.06;82.40
61906;BME280;47863;55.766;37.672;2023-02-28T04:04:01;100000.66;;;-8.02;81.63
61906;BME280;47863;55.766;37.672;2023-02-28T04:06:31;99978.69;;;-8.23;82.13
61906;BME280;47863;55.766;37.672;2023-02-28T04:08:57;99993.94;;;-8.09;81.57
61906;BME280;47863;55.766;37.672;2023-02-28T04:13:51;99971.00;;;-8.28;81.83
61906;BME280;47863;55.766;37.672;2023-02-28T04:16:17;99969.16;;;-8.24;81.94
61906;BME280;47863;55.766;37.672;2023-02-28T04:18:42;99963.31;;;-8.32;82.00
61906;BME280;47863;55.766;37.672;2023-02-28T04:21:09;99932.25;;;-8.37;81.71
61906;BME280;47863;55.766;37.672;2023-02-28T04:23:35;99960.69;;;-8.31;81.59
61906;BME280;47863;55.766;37.672;2023-02-28T04:26:01;99972.69;;;-8.25;81.61
61906;BME280;47863;55.766;37.672;2023-02-28T04:28:27;99973.34;;;-8.17;81.56
61906;BME280;47863;55.766;37.672;2023-02-28T04:31:01;99958.53;;;-8.13;81.45
61906;BME280;47863;55.766;37.672;2023-02-28T04:33:28;99966.88;;;-8.02;81.93
61906;BME280;47863;55.766;37.672;2023-02-28T04:36:20;99972.78;;;-7.95;81.32
61906;BME280;47863;55.766;37.672;2023-02-28T04:38:46;99965.81;;;-7.95;81.76
61906;BME280;47863;55.766;37.672;2023-02-28T04:41:15;99961.25;;;-7.85;81.14
61906;BME280;47863;55.766;37.672;2023-02-28T04:43:40;99928.59;;;-7.95;81.18
61906;BME280;47863;55.766;37.672;2023-02-28T04:46:06;99913.88;;;-7.97;80.82
61906;BME280;47863;55.766;37.672;2023-02-28T04:48:34;99945.75;;;-7.59;80.82
61906;BME280;47863;55.766;37.672;2023-02-28T04:51:04;99940.16;;;-7.45;81.20
61906;BME280;47863;55.766;37.672;2023-02-28T04:53:31;99939.88;;;-7.34;80.36
61906;BME280;47863;55.766;37.672;2023-02-28T04:55:58;99914.59;;;-7.30;80.03
61906;BME280;47863;55.766;37.672;2023-02-28T04:58:25;99861.47;;;-7.53;79.51
61906;BME280;47863;55.766;37.672;2023-02-28T05:00:54;99926.28;;;-7.15;77.95
61906;BME280;47863;55.766;37.672;2023-02-28T05:03:26;99896.31;;;-7.29;77.91
61906;BME280;47863;55.766;37.672;2023-02-28T05:05:52;99921.00;;;-7.12;79.07
61906;BME280;47863;55.766;37.672;2023-02-28T05:08:17;99903.59;;;-7.10;77.98
61906;BME280;47863;55.766;37.672;2023-02-28T05:10:43;99884.97;;;-6.98;78.34
61906;BME280;47863;55.766;37.672;2023-02-28T05:13:11;99872.56;;;-6.63;78.26
61906;BME280;47863;55.766;37.672;2023-02-28T05:15:37;99869.44;;;-6.23;77.01
61906;BME280;47863;55.766;37.672;2023-02-28T05:18:03;99869.25;;;-5.69;77.61
61906;BME280;47863;55.766;37.672;2023-02-28T05:20:29;99815.91;;;-5.39;77.19
61906;BME280;47863;55.766;37.672;2023-02-28T05:22:54;99818.66;;;-4.77;75.49
61906;BME280;47863;55.766;37.672;2023-02-28T05:25:21;99818.81;;;-4.00;74.49
61906;BME280;47863;55.766;37.672;2023-02-28T05:27:48;99842.13;;;-3.36;73.50
61906;BME280;47863;55.766;37.672;2023-02-28T05:30:14;99838.09;;;-2.88;71.31
61906;BME280;47863;55.766;37.672;2023-02-28T05:32:41;99832.41;;;-2.44;70.60
61906;BME280;47863;55.766;37.672;2023-02-28T05:35:11;99825.09;;;-2.04;69.66
61906;BME280;47863;55.766;37.672;2023-02-28T05:37:38;99809.19;;;-1.68;68.84
61906;BME280;47863;55.766;37.672;2023-02-28T05:40:05;99812.94;;;-1.24;67.21
61906;BME280;47863;55.766;37.672;2023-02-28T05:42:32;99800.75;;;-0.95;67.29
61906;BME280;47863;55.766;37.672;2023-02-28T05:44:58;99803.25;;;-0.77;67.64
61906;BME280;47863;55.766;37.672;2023-02-28T05:47:24;99793.25;;;-0.71;61.97
61906;BME280;47863;55.766;37.672;2023-02-28T05:49:50;99800.50;;;-0.60;63.87
61906;BME280;47863;55.766;37.672;2023-02-28T05:52:15;99789.53;;;-0.52;63.69
61906;BME280;47863;55.766;37.672;2023-02-28T05:54:41;99787.94;;;-0.55;60.25
61906;BME280;47863;55.766;37.672;2023-02-28T05:57:06;99787.00;;;-0.40;60.76
61906;BME280;47863;55.766;37.672;2023-02-28T05:59:32;99776.22;;;-0.06;61.18
61906;BME280;47863;55.766;37.672;2023-02-28T06:01:58;99742.34;;;0.31;61.17
61906;BME280;47863;55.766;37.672;2023-02-28T06:04:24;99744.78;;;0.61;61.05
61906;BME280;47863;55.766;37.672;2023-02-28T06:06:50;99759.44;;;1.07;60.38
61906;BME280;47863;55.766;37.672;2023-02-28T06:09:16;99712.00;;;0.92;61.33
61906;BME280;47863;55.766;37.672;2023-02-28T06:11:43;99737.78;;;1.02;59.55
61906;BME280;47863;55.766;37.672;2023-02-28T06:14:15;99708.34;;;0.95;59.95
61906;BME280;47863;55.766;37.672;2023-02-28T06:16:41;99698.16;;;0.89;58.28
61906;BME280;47863;55.766;37.672;2023-02-28T06:19:08;99703.25;;;0.92;53.01
61906;BME280;47863;55.766;37.672;2023-02-28T06:21:34;99723.38;;;0.80;53.72
61906;BME280;47863;55.766;37.672;2023-02-28T06:24:00;99679.44;;;0.66;54.67
61906;BME280;47863;55.766;37.672;2023-02-28T06:26:26;99703.91;;;0.68;54.11
61906;BME280;47863;55.766;37.672;2023-02-28T06:28:52;99697.00;;;0.53;52.61
61906;BME280;47863;55.766;37.672;2023-02-28T06:31:18;99698.91;;;0.09;53.07
61906;BME280;47863;55.766;37.672;2023-02-28T06:33:45;99705.16;;;-0.21;53.48
61906;BME280;47863;55.766;37.672;2023-02-28T06:36:12;99710.78;;;-0.12;53.73
61906;BME280;47863;55.766;37.672;2023-02-28T06:38:39;99696.50;;;-0.37;52.84
61906;BME280;47863;55.766;37.672;2023-02-28T06:41:06;99684.81;;;-0.90;54.82
61906;BME280;47863;55.766;37.672;2023-02-28T06:43:35;99698.63;;;-1.17;55.47
61906;BME280;47863;55.766;37.672;2023-02-28T06:46:04;99682.88;;;-1.33;55.93
61906;BME280;47863;55.766;37.672;2023-02-28T06:48:30;99648.88;;;-1.66;56.49
61906;BME280;47863;55.766;37.672;2023-02-28T06:51:07;99671.25;;;-1.29;57.35
61906;BME280;47863;55.766;37.672;2023-02-28T06:53:33;99651.66;;;-1.23;56.87
61906;BME280;47863;55.766;37.672;2023-02-28T06:56:11;99604.38;;;-1.53;57.38
61906;BME280;47863;55.766;37.672;2023-02-28T06:58:37;99648.28;;;-1.25;57.11
61906;BME280;47863;55.766;37.672;2023-02-28T07:01:05;99636.44;;;-1.32;57.27
61906;BME280;47863;55.766;37.672;2023-02-28T07:03:31;99622.34;;;-1.46;57.40
61906;BME280;47863;55.766;37.672;2023-02-28T07:05:57;99591.50;;;-1.58;57.85
61906;BME280;47863;55.766;37.672;2023-02-28T07:08:24;99614.78;;;-1.22;58.42
61906;BME280;47863;55.766;37.672;2023-02-28T07:10:56;99587.16;;;-1.29;57.98
61906;BME280;47863;55.766;37.672;2023-02-28T07:13:22;99607.81;;;-1.37;57.95
61906;BME280;47863;55.766;37.672;2023-02-28T07:18:20;99599.25;;;-1.71;57.57
61906;BME280;47863;55.766;37.672;2023-02-28T07:20:45;99568.91;;;-2.07;58.61
61906;BME280;47863;55.766;37.672;2023-02-28T07:23:11;99601.75;;;-2.00;59.15
61906;BME280;47863;55.766;37.672;2023-02-28T07:25:37;99584.91;;;-2.11;59.33
61906;BME280;47863;55.766;37.672;2023-02-28T07:28:02;99582.47;;;-2.14;59.98
61906;BME280;47863;55.766;37.672;2023-02-28T07:30:28;99583.63;;;-2.04;60.29
61906;BME280;47863;55.766;37.672;2023-02-28T07:32:53;99506.31;;;-2.29;60.27
61906;BME280;47863;55.766;37.672;2023-02-28T07:35:22;99568.66;;;-1.72;61.05
61906;BME280;47863;55.766;37.672;2023-02-28T07:37:47;99552.47;;;-1.64;60.69
61906;BME280;47863;55.766;37.672;2023-02-28T07:40:13;99560.41;;;-1.50;60.71
61906;BME280;47863;55.766;37.672;2023-02-28T07:42:42;99530.56;;;-1.34;61.06
61906;BME280;47863;55.766;37.672;2023-02-28T07:45:10;99549.66;;;-1.02;61.09
61906;BME280;47863;55.766;37.672;2023-02-28T07:47:41;99553.03;;;-0.86;60.68
61906;BME280;47863;55.766;37.672;2023-02-28T07:50:09;99566.38;;;-0.74;60.68
61906;BME280;47863;55.766;37.672;2023-02-28T07:52:36;99558.75;;;-0.79;60.40
61906;BME280;47863;55.766;37.672;2023-02-28T07:55:02;99521.31;;;-1.11;60.57
61906;BME280;47863;55.766;37.672;2023-02-28T07:57:29;99538.31;;;-1.03;60.20
61906;BME280;47863;55.766;37.672;2023-02-28T07:59:54;99518.38;;;-1.07;61.14
61906;BME280;47863;55.766;37.672;2023-02-28T08:02:20;99523.19;;;-1.13;61.38
61906;BME280;47863;55.766;37.672;2023-02-28T08:04:45;99547.41;;;-0.94;61.39
61906;BME280;47863;55.766;37.672;2023-02-28T08:07:16;99534.16;;;-0.92;60.54
61906;BME280;47863;55.766;37.672;2023-02-28T08:09:42;99532.31;;;-1.05;60.91
61906;BME280;47863;55.766;37.672;2023-02-28T08:12:09;99380.91;;;-1.79;61.59
61906;BME280;47863;55.766;37.672;2023-02-28T08:14:35;99469.03;;;-1.30;60.99
61906;BME280;47863;55.766;37.672;2023-02-28T08:17:01;99489.56;;;-1.23;61.16
61906;BME280;47863;55.766;37.672;2023-02-28T08:19:28;99477.84;;;-1.31;61.60
61906;BME280;47863;55.766;37.672;2023-02-28T08:21:54;99460.19;;;-1.44;61.80
61906;BME280;47863;55.766;37.672;2023-02-28T08:24:23;99453.53;;;-1.35;62.01
61906;BME280;47863;55.766;37.672;2023-02-28T08:26:49;99408.03;;;-1.50;62.07
61906;BME280;47863;55.766;37.672;2023-02-28T08:29:15;99466.59;;;-0.63;61.56
61906;BME280;47863;55.766;37.672;2023-02-28T08:31:41;99457.91;;;-0.51;61.29
61906;BME280;47863;55.766;37.672;2023-02-28T08:34:12;99476.13;;;-0.48;61.25
61906;BME280;47863;55.766;37.672;2023-02-28T08:36:38;99473.34;;;-0.59;61.59
61906;BME280;47863;55.766;37.672;2023-02-28T08:39:04;99498.91;;;-0.61;62.15
61906;BME280;47863;55.766;37.672;2023-02-28T08:41:33;99464.09;;;-0.93;62.34
61906;BME280;47863;55.766;37.672;2023-02-28T08:43:59;99491.81;;;-0.88;62.62
61906;BME280;47863;55.766;37.672;2023-02-28T08:46:25;99428.09;;;-1.20;62.64
61906;BME280;47863;55.766;37.672;2023-02-28T08:48:55;99519.31;;;-0.79;63.07
61906;BME280;47863;55.766;37.672;2023-02-28T08:51:24;99479.25;;;-1.11;63.29
61906;BME280;47863;55.766;37.672;2023-02-28T08:53:59;99460.56;;;-1.35;63.76
61906;BME280;47863;55.766;37.672;2023-02-28T08:56:26;99490.97;;;-1.31;63.81
61906;BME280;47863;55.766;37.672;2023-02-28T08:58:55;99500.44;;;-1.43;63.83
61906;BME280;47863;55.766;37.672;2023-02-28T09:01:23;99458.56;;;-1.75;64.13
61906;BME280;47863;55.766;37.672;2023-02-28T09:03:53;99489.72;;;-1.54;64.41
61906;BME280;47863;55.766;37.672;2023-02-28T09:06:20;99496.38;;;-1.63;64.75
61906;BME280;47863;55.766;37.672;2023-02-28T09:08:46;99454.13;;;-1.89;64.91
61906;BME280;47863;55.766;37.672;2023-02-28T09:11:12;99479.03;;;-1.66;65.14
61906;BME280;47863;55.766;37.672;2023-02-28T09:13:39;99446.09;;;-1.71;65.24
61906;BME280;47863;55.766;37.672;2023-02-28T09:16:07;99449.28;;;-1.66;65.43
61906;BME280;47863;55.766;37.672;2023-02-28T09:18:35;99452.88;;;-1.53;65.51
61906;BME280;47863;55.766;37.672;2023-02-28T09:21:11;99449.41;;;-1.39;65.35
61906;BME280;47863;55.766;37.672;2023-02-28T09:23:43;99417.97;;;-1.55;65.32
61906;BME280;47863;55.766;37.672;2023-02-28T09:26:14;99436.94;;;-1.35;65.47
61906;BME280;47863;55.766;37.672;2023-02-28T09:28:40;99388.31;;;-1.57;65.40
61906;BME280;47863;55.766;37.672;2023-02-28T09:31:06;99438.44;;;-1.31;65.42
61906;BME280;47863;55.766;37.672;2023-02-28T09:33:31;99459.91;;;-1.10;65.64
61906;BME280;47863;55.766;37.672;2023-02-28T09:35:59;99430.44;;;-1.15;64.97
61906;BME280;47863;55.766;37.672;2023-02-28T09:38:26;99459.06;;;-0.96;64.57
61906;BME280;47863;55.766;37.672;2023-02-28T09:40:56;99472.38;;;-1.00;65.16
61906;BME280;47863;55.766;37.672;2023-02-28T09:43:24;99449.56;;;-0.99;65.09
61906;BME280;47863;55.766;37.672;2023-02-28T09:46:02;99429.19;;;-0.95;65.14
61906;BME280;47863;55.766;37.672;2023-02-28T09:48:39;99444.03;;;-0.94;65.25
61906;BME280;47863;55.766;37.672;2023-02-28T09:54:15;99430.00;;;-0.81;65.14
61906;BME280;47863;55.766;37.672;2023-02-28T09:56:55;99379.53;;;-1.00;65.00
61906;BME280;47863;55.766;37.672;2023-02-28T10:05:11;99424.78;;;-1.09;65.77
61906;BME280;47863;55.766;37.672;2023-02-28T10:12:53;99385.09;;;-1.19;66.10
61906;BME280;47863;55.766;37.672;2023-02-28T10:15:23;99391.56;;;-1.10;65.86
61906;BME280;47863;55.766;37.672;2023-02-28T10:17:54;99376.63;;;-1.10;65.97
61906;BME280;47863;55.766;37.672;2023-02-28T10:20:24;99381.06;;;-1.10;66.23
61906;BME280;47863;55.766;37.672;2023-02-28T10:25:34;99332.31;;;-1.43;66.29
61906;BME280;47863;55.766;37.672;2023-02-28T10:28:15;99367.66;;;-1.20;66.55
61906;BME280;47863;55.766;37.672;2023-02-28T10:30:51;99359.88;;;-1.22;66.27
61906;BME280;47863;55.766;37.672;2023-02-28T10:33:26;99364.38;;;-1.24;66.64
61906;BME280;47863;55.766;37.672;2023-02-28T10:35:53;99341.78;;;-1.26;66.63
61906;BME280;47863;55.766;37.672;2023-02-28T10:38:25;99337.38;;;-1.40;66.42
61906;BME280;47863;55.766;37.672;2023-02-28T10:40:51;99353.50;;;-1.46;66.81
61906;BME280;47863;55.766;37.672;2023-02-28T10:46:13;99335.78;;;-1.57;67.22
61906;BME280;47863;55.766;37.672;2023-02-28T10:48:57;99347.72;;;-1.51;67.30
61906;BME280;47863;55.766;37.672;2023-02-28T10:51:35;99319.97;;;-1.70;67.51
61906;BME280;47863;55.766;37.672;2023-02-28T10:54:02;99319.31;;;-1.73;67.54
61906;BME280;47863;55.766;37.672;2023-02-28T10:56:28;99318.94;;;-1.67;67.59
61906;BME280;47863;55.766;37.672;2023-02-28T11:01:41;99342.91;;;-1.45;67.72
61906;BME280;47863;55.766;37.672;2023-02-28T11:04:33;99309.91;;;-1.63;67.99
61906;BME280;47863;55.766;37.672;2023-02-28T11:09:39;99297.53;;;-1.61;67.99
61906;BME280;47863;55.766;37.672;2023-02-28T11:12:08;99321.97;;;-1.46;68.20
61906;BME280;47863;55.766;37.672;2023-02-28T11:14:51;99289.56;;;-1.60;68.30
61906;BME280;47863;55.766;37.672;2023-02-28T11:17:28;99296.50;;;-1.58;68.47
61906;BME280;47863;55.766;37.672;2023-02-28T11:20:01;99264.66;;;-1.81;68.78
61906;BME280;47863;55.766;37.672;2023-02-28T11:22:43;99250.47;;;-1.78;68.89
61906;BME280;47863;55.766;37.672;2023-02-28T11:25:21;99296.75;;;-1.49;68.70
61906;BME280;47863;55.766;37.672;2023-02-28T11:27:56;99285.59;;;-1.52;68.77
61906;BME280;47863;55.766;37.672;2023-02-28T11:30:25;99289.34;;;-1.42;69.16
61906;BME280;47863;55.766;37.672;2023-02-28T11:32:51;99298.72;;;-1.38;69.09
61906;BME280;47863;55.766;37.672;2023-02-28T11:37:51;99290.34;;;-1.30;69.88
61906;BME280;47863;55.766;37.672;2023-02-28T11:40:25;99273.06;;;-1.34;69.79
61906;BME280;47863;55.766;37.672;2023-02-28T11:49:14;99259.44;;;-1.00;70.16
61906;BME280;47863;55.766;37.672;2023-02-28T11:51:35;99274.63;;;-0.90;70.52
61906;BME280;47863;55.766;37.672;2023-02-28T11:56:58;99273.38;;;-1.12;71.47
61906;BME280;47863;55.766;37.672;2023-02-28T11:59:59;99265.34;;;-1.23;71.47
61906;BME280;47863;55.766;37.672;2023-02-28T12:10:27;99241.66;;;-1.36;72.67
61906;BME280;47863;55.766;37.672;2023-02-28T12:29:19;99182.78;;;-1.73;73.80
61906;BME280;47863;55.766;37.672;2023-02-28T12:32:11;99240.66;;;-1.48;74.08
61906;BME280;47863;55.766;37.672;2023-02-28T12:34:42;99235.16;;;-1.57;74.00
61906;BME280;47863;55.766;37.672;2023-02-28T12:37:21;99232.94;;;-1.64;74.38
61906;BME280;47863;55.766;37.672;2023-02-28T12:39:51;99209.03;;;-1.73;74.74
61906;BME280;47863;55.766;37.672;2023-02-28T12:42:29;99216.59;;;-1.69;75.28
61906;BME280;47863;55.766;37.672;2023-02-28T12:45:02;99221.84;;;-1.69;75.71
61906;BME280;47863;55.766;37.672;2023-02-28T12:47:32;99201.38;;;-1.91;76.22
61906;BME280;47863;55.766;37.672;2023-02-28T12:50:10;99190.41;;;-1.97;76.38
61906;BME280;47863;55.766;37.672;2023-02-28T12:55:23;99192.19;;;-1.84;76.43
61906;BME280;47863;55.766;37.672;2023-02-28T13:01:22;99159.22;;;-1.75;76.15
61906;BME280;47863;55.766;37.672;2023-02-28T13:09:13;99154.00;;;-1.62;76.20
61906;BME280;47863;55.766;37.672;2023-02-28T13:11:47;99165.25;;;-1.60;76.23
61906;BME280;47863;55.766;37.672;2023-02-28T13:19:26;99148.97;;;-1.65;76.73
61906;BME280;47863;55.766;37.672;2023-02-28T13:21:54;99093.91;;;-2.07;76.75
61906;BME280;47863;55.766;37.672;2023-02-28T13:24:41;99167.47;;;-1.67;76.78
61906;BME280;47863;55.766;37.672;2023-02-28T13:39:58;99125.59;;;-1.55;76.97
61906;BME280;47863;55.766;37.672;2023-02-28T13:42:50;99122.00;;;-1.54;76.89
61906;BME280;47863;55.766;37.672;2023-02-28T13:45:28;99118.22;;;-1.50;76.89
61906;BME280;47863;55.766;37.672;2023-02-28T13:50:37;99120.84;;;-1.50;77.19
61906;BME280;47863;55.766;37.672;2023-02-28T14:06:38;99097.38;;;-1.66;77.20
61906;BME280;47863;55.766;37.672;2023-02-28T14:09:36;99116.47;;;-1.50;77.31
61906;BME280;47863;55.766;37.672;2023-02-28T14:18:00;99118.22;;;-1.50;77.60
61906;BME280;47863;55.766;37.672;2023-02-28T14:20:30;99118.22;;;-1.50;77.91
61906;BME280;47863;55.766;37.672;2023-02-28T14:26:48;99108.78;;;-1.53;78.25
61906;BME280;47863;55.766;37.672;2023-02-28T14:29:14;99080.06;;;-1.69;78.25
61906;BME280;47863;55.766;37.672;2023-02-28T14:32:00;99096.69;;;-1.55;78.50
61906;BME280;47863;55.766;37.672;2023-02-28T14:37:20;99090.91;;;-1.61;78.58
61906;BME280;47863;55.766;37.672;2023-02-28T14:39:48;99088.50;;;-1.64;78.63
61906;BME280;47863;55.766;37.672;2023-02-28T14:42:31;99066.44;;;-1.61;79.34
61906;BME280;47863;55.766;37.672;2023-02-28T14:44:57;99005.81;;;-2.11;79.72
61906;BME280;47863;55.766;37.672;2023-02-28T14:47:27;99056.50;;;-1.83;80.34
61906;BME280;47863;55.766;37.672;2023-02-28T14:49:54;99079.22;;;-1.69;80.60
61906;BME280;47863;55.766;37.672;2023-02-28T14:52:26;99076.69;;;-1.71;80.79
61906;BME280;47863;55.766;37.672;2023-02-28T15:02:24;99066.38;;;-1.74;81.22
61906;BME280;47863;55.766;37.672;2023-02-28T15:04:59;99065.03;;;-1.67;81.27
61906;BME280;47863;55.766;37.672;2023-02-28T15:07:26;99073.66;;;-1.65;80.99
61906;BME280;47863;55.766;37.672;2023-02-28T15:10:21;99069.78;;;-1.59;80.68
61906;BME280;47863;55.766;37.672;2023-02-28T15:15:20;99075.28;;;-1.49;80.92
61906;BME280;47863;55.766;37.672;2023-02-28T15:17:50;99055.59;;;-1.56;80.91
61906;BME280;47863;55.766;37.672;2023-02-28T15:20:18;99068.03;;;-1.46;80.90
61906;BME280;47863;55.766;37.672;2023-02-28T15:22:46;99045.97;;;-1.56;81.17
61906;BME280;47863;55.766;37.672;2023-02-28T15:25:15;99046.25;;;-1.61;81.10
61906;BME280;47863;55.766;37.672;2023-02-28T15:27:53;99033.94;;;-1.60;81.08
61906;BME280;47863;55.766;37.672;2023-02-28T15:30:31;99062.38;;;-1.40;80.65
61906;BME280;47863;55.766;37.672;2023-02-28T15:35:37;99060.06;;;-1.31;81.10
61906;BME280;47863;55.766;37.672;2023-02-28T15:40:42;99043.22;;;-1.29;81.24
61906;BME280;47863;55.766;37.672;2023-02-28T15:43:57;99056.81;;;-1.22;81.42
61906;BME280;47863;55.766;37.672;2023-02-28T15:46:07;99014.25;;;-1.27;81.19
61906;BME280;47863;55.766;37.672;2023-02-28T15:48:45;99026.13;;;-1.22;81.27
61906;BME280;47863;55.766;37.672;2023-02-28T15:53:51;99039.47;;;-1.12;81.45
61906;BME280;47863;55.766;37.672;2023-02-28T15:56:32;99042.72;;;-1.08;81.26
61906;BME280;47863;55.766;37.672;2023-02-28T15:59:23;99033.06;;;-1.08;81.49
61906;BME280;47863;55.766;37.672;2023-02-28T16:04:34;99029.25;;;-1.04;81.68
61906;BME280;47863;55.766;37.672;2023-02-28T16:09:26;98967.91;;;-1.41;81.93
61906;BME280;47863;55.766;37.672;2023-02-28T16:11:54;99017.72;;;-1.14;82.00
61906;BME280;47863;55.766;37.672;2023-02-28T16:14:23;99022.09;;;-1.02;81.73
61906;BME280;47863;55.766;37.672;2023-02-28T16:16:52;99018.53;;;-1.01;82.13
61906;BME280;47863;55.766;37.672;2023-02-28T16:19:19;99013.06;;;-0.97;82.11